Terminal Aerodrome Forecast
Issued by NWS Missoula, MT

Home | Current Version | Previous Version | Text Only | Print | Product List | Glossary On
Versions: 1 2 3 4 5 6 7 8 9 10 11 12 13 14 15 16 17 18 19
150
FTUS45 KMSO 251720
TAFGPI
TAF
KGPI 251720Z 2518/2618 00000KT P6SM OVC045
     FM252000 17008KT P6SM VCSH BKN050
     FM252200 15010KT P6SM -SHRA OVC050
     FM260100 16005KT P6SM BKN050=

USA.gov is the U.S. government's official web portal to all federal, state and local government web resources and services.